Time;durP1;ratioP1;P1;durP2;ratioP2;P2;SDS_P1;SDS_P2;PMS_P1;PMS_P2;Temp;Humidity;BMP_temperature;BMP_pressure;BME280_temperature;BME280_humidity;BME280_pressure;Samples;Min_cycle;Max_cycle;Signal;HPM_P1;HPM_P2
2023/06/28 00:01:25;;;;;;;5.60;1.50;;;15.60;99.90;;;;;;7347600;32;20103;-54
2023/06/28 00:05:27;;;;;;;5.55;1.42;;;15.50;99.90;;;;;;7355913;32;20115;-56
2023/06/28 00:09:29;;;;;;;6.75;1.45;;;15.40;99.90;;;;;;7351815;32;20112;-55
2023/06/28 00:13:31;;;;;;;3.97;1.73;;;15.30;99.90;;;;;;7354041;32;20130;-55
2023/06/28 00:17:32;;;;;;;4.10;1.27;;;15.20;99.90;;;;;;7346495;32;20483;-55
2023/06/28 00:21:34;;;;;;;5.35;1.48;;;15.20;99.90;;;;;;7354285;32;20107;-54
2023/06/28 00:25:36;;;;;;;5.72;1.35;;;15.10;99.90;;;;;;7356231;32;20104;-54
2023/06/28 00:29:38;;;;;;;5.00;1.95;;;15.10;99.90;;;;;;7345819;32;20210;-55
2023/06/28 00:33:41;;;;;;;2.85;1.23;;;15.00;99.90;;;;;;7351919;32;20562;-54
2023/06/28 00:37:42;;;;;;;5.22;1.30;;;15.00;99.90;;;;;;7349531;32;20149;-55
2023/06/28 00:41:44;;;;;;;4.78;1.45;;;14.90;99.90;;;;;;7351823;32;20288;-54
2023/06/28 00:45:46;;;;;;;5.00;1.33;;;14.80;99.90;;;;;;7354400;32;20320;-54
2023/06/28 00:49:50;;;;;;;8.93;2.45;;;14.70;99.90;;;;;;7349947;32;20106;-54
2023/06/28 00:53:52;;;;;;;8.35;1.65;;;14.60;99.90;;;;;;7354485;32;20278;-54
2023/06/28 00:57:54;;;;;;;7.05;1.30;;;14.50;99.90;;;;;;7354451;32;20137;-55
2023/06/28 01:01:56;;;;;;;6.15;1.35;;;14.50;99.90;;;;;;7348405;32;20196;-55
2023/06/28 01:05:58;;;;;;;3.80;1.45;;;14.40;99.90;;;;;;7357266;32;20127;-58
2023/06/28 01:10:01;;;;;;;3.90;1.52;;;14.30;99.90;;;;;;7356381;32;20556;-55
2023/06/28 01:14:05;;;;;;;5.82;1.40;;;14.20;99.90;;;;;;7351410;32;20477;-54
2023/06/28 01:18:06;;;;;;;4.97;1.58;;;14.10;99.90;;;;;;7352528;32;20115;-56
2023/06/28 01:22:12;;;;;;;6.32;1.60;;;14.10;99.90;;;;;;7356258;32;20921;-55
2023/06/28 01:26:15;;;;;;;5.65;1.20;;;14.00;99.90;;;;;;7353744;32;20230;-54
2023/06/28 01:30:23;;;;;;;6.53;1.27;;;14.00;99.90;;;;;;7348769;32;20126;-54
2023/06/28 01:34:26;;;;;;;5.05;1.50;;;13.80;99.90;;;;;;7359578;32;20695;-54
2023/06/28 01:38:29;;;;;;;4.40;1.50;;;13.70;99.90;;;;;;7355565;32;20276;-54
2023/06/28 01:42:33;;;;;;;2.42;1.20;;;13.60;99.90;;;;;;7356419;32;20099;-55
2023/06/28 01:46:35;;;;;;;5.43;1.85;;;13.50;99.90;;;;;;7351744;32;20163;-55
2023/06/28 01:50:37;;;;;;;6.18;1.52;;;13.50;99.90;;;;;;7358804;32;20303;-55
2023/06/28 01:54:39;;;;;;;3.95;1.50;;;13.40;99.90;;;;;;7355258;32;20203;-56
2023/06/28 01:58:41;;;;;;;4.78;1.85;;;13.30;99.90;;;;;;7357202;32;20611;-54
2023/06/28 02:02:43;;;;;;;5.25;1.62;;;13.30;99.90;;;;;;7355309;32;20156;-55
2023/06/28 02:06:45;;;;;;;5.45;1.70;;;13.40;99.90;;;;;;7350102;32;20160;-54
2023/06/28 02:10:47;;;;;;;7.70;1.60;;;13.30;99.90;;;;;;7357107;32;20107;-54
2023/06/28 02:14:51;;;;;;;3.62;1.50;;;13.10;99.90;;;;;;7358308;32;20310;-54
2023/06/28 02:18:57;;;;;;;4.53;1.70;;;13.00;99.90;;;;;;7354377;32;20460;-55
2023/06/28 02:22:58;;;;;;;4.97;1.87;;;12.90;99.90;;;;;;7352746;32;20598;-54
2023/06/28 02:27:00;;;;;;;5.45;1.62;;;12.90;99.90;;;;;;7349132;32;20134;-55
2023/06/28 02:31:02;;;;;;;3.42;1.60;;;12.90;99.90;;;;;;7350942;32;20559;-57
2023/06/28 02:35:04;;;;;;;4.65;1.73;;;12.90;99.90;;;;;;7348692;32;20179;-55
2023/06/28 02:39:06;;;;;;;4.62;1.85;;;12.90;99.90;;;;;;7350145;32;20137;-54
2023/06/28 02:43:08;;;;;;;5.70;1.80;;;12.80;99.90;;;;;;7351939;32;20111;-55
2023/06/28 02:47:10;;;;;;;5.28;2.00;;;12.80;99.90;;;;;;7349803;32;20165;-55
2023/06/28 02:51:11;;;;;;;2.60;1.55;;;13.00;99.90;;;;;;7345501;32;20143;-55
2023/06/28 02:55:13;;;;;;;4.87;2.00;;;13.00;99.90;;;;;;7348371;32;20111;-54
2023/06/28 02:59:15;;;;;;;5.68;1.80;;;12.90;99.90;;;;;;7350558;32;20153;-54
2023/06/28 03:03:17;;;;;;;4.22;1.83;;;12.80;99.90;;;;;;7349136;32;20111;-55
2023/06/28 03:07:19;;;;;;;4.22;2.05;;;12.90;99.90;;;;;;7348609;32;20229;-54
2023/06/28 03:11:21;;;;;;;3.55;2.37;;;12.90;99.90;;;;;;7354457;32;20157;-55
2023/06/28 03:15:22;;;;;;;5.35;1.83;;;12.90;99.90;;;;;;7350431;32;20533;-54
2023/06/28 03:19:24;;;;;;;4.15;2.05;;;13.00;99.90;;;;;;7354527;32;20767;-54
2023/06/28 03:23:26;;;;;;;4.50;2.10;;;13.00;99.90;;;;;;7346056;32;21095;-55
2023/06/28 03:27:27;;;;;;;4.78;2.42;;;13.00;99.90;;;;;;7354664;32;20122;-54
2023/06/28 03:31:31;;;;;;;6.10;1.92;;;13.10;99.90;;;;;;7353118;32;20100;-56
2023/06/28 03:35:33;;;;;;;6.95;2.33;;;13.10;99.90;;;;;;7355143;32;20112;-55
2023/06/28 03:39:35;;;;;;;9.23;2.40;;;13.20;99.90;;;;;;7356008;32;20553;-54
2023/06/28 03:43:36;;;;;;;4.43;2.00;;;13.20;99.90;;;;;;7350487;32;20107;-55
2023/06/28 03:47:38;;;;;;;6.97;2.12;;;13.20;99.90;;;;;;7353685;32;20170;-54
2023/06/28 03:51:40;;;;;;;5.22;2.33;;;13.30;99.90;;;;;;7354217;32;20108;-55
2023/06/28 03:55:42;;;;;;;4.32;1.90;;;13.30;99.90;;;;;;7355524;32;20209;-54
2023/06/28 03:59:43;;;;;;;6.55;2.10;;;13.30;99.90;;;;;;7349123;32;20162;-55
2023/06/28 04:03:45;;;;;;;2.83;1.95;;;13.30;99.90;;;;;;7353481;32;20111;-55
2023/06/28 04:07:54;;;;;;;5.70;1.98;;;13.30;99.90;;;;;;7352193;32;20133;-55
2023/06/28 04:11:56;;;;;;;4.25;2.67;;;13.30;99.90;;;;;;7346559;32;20487;-54
2023/06/28 04:15:57;;;;;;;3.95;2.05;;;13.40;99.90;;;;;;7346653;32;20176;-55
2023/06/28 04:19:59;;;;;;;5.35;2.25;;;13.50;99.90;;;;;;7353357;32;20533;-54
2023/06/28 04:24:01;;;;;;;8.63;2.30;;;13.60;99.90;;;;;;7349758;32;20119;-55
2023/06/28 04:28:03;;;;;;;4.03;1.90;;;13.70;99.90;;;;;;7347394;32;20210;-54
2023/06/28 04:32:21;;;;;;;5.12;2.37;;;13.80;99.90;;;;;;7347501;32;20123;-54
2023/06/28 04:36:25;;;;;;;;;;;14.00;99.90;;;;;;7343751;32;20115;-55
2023/06/28 04:40:27;;;;;;;7.82;1.98;;;14.20;99.90;;;;;;7347604;32;20176;-54
2023/06/28 04:44:36;;;;;;;6.70;1.98;;;14.40;99.90;;;;;;7350087;32;20103;-54
2023/06/28 04:48:39;;;;;;;5.07;2.53;;;14.50;99.90;;;;;;7352595;32;20137;-56
2023/06/28 04:52:41;;;;;;;7.00;2.58;;;14.70;99.90;;;;;;7348138;32;22213;-56
2023/06/28 04:56:44;;;;;;;5.85;2.58;;;14.80;99.90;;;;;;7346033;32;20298;-57
2023/06/28 05:00:45;;;;;;;8.05;2.20;;;14.80;99.90;;;;;;7353568;32;20133;-56
2023/06/28 05:04:47;;;;;;;6.70;2.60;;;15.00;99.90;;;;;;7352409;32;20218;-55
2023/06/28 05:08:49;;;;;;;6.05;2.10;;;15.10;99.90;;;;;;7352140;32;20548;-56
2023/06/28 05:12:51;;;;;;;3.37;2.05;;;15.20;99.90;;;;;;7352299;32;20147;-56
2023/06/28 05:16:54;;;;;;;5.00;1.92;;;15.30;99.90;;;;;;7344896;32;20123;-56
2023/06/28 05:20:55;;;;;;;4.62;2.20;;;15.40;99.90;;;;;;7350529;32;20119;-56
2023/06/28 05:24:57;;;;;;;5.25;2.33;;;15.50;99.90;;;;;;7347094;32;20159;-56
2023/06/28 05:28:59;;;;;;;5.37;2.50;;;15.60;99.90;;;;;;7351815;32;20164;-56
2023/06/28 05:33:02;;;;;;;6.20;2.78;;;15.60;99.90;;;;;;7345825;32;20504;-56
2023/06/28 05:37:04;;;;;;;5.07;2.03;;;15.60;99.90;;;;;;7347410;32;20108;-57
2023/06/28 05:41:14;;;;;;;5.40;2.40;;;15.60;99.90;;;;;;7348325;32;20125;-56
2023/06/28 05:45:16;;;;;;;4.72;2.12;;;15.80;99.90;;;;;;7344613;32;20612;-56
2023/06/28 05:49:19;;;;;;;8.32;2.92;;;15.90;99.90;;;;;;7343177;32;20187;-56
2023/06/28 05:53:20;;;;;;;6.03;3.15;;;15.90;99.90;;;;;;7349851;32;20123;-56
2023/06/28 05:57:22;;;;;;;7.03;3.53;;;15.90;99.90;;;;;;7346420;32;20110;-57
2023/06/28 06:01:24;;;;;;;6.68;2.50;;;15.90;99.90;;;;;;7345895;32;20123;-56
2023/06/28 06:05:26;;;;;;;4.90;2.47;;;15.90;99.90;;;;;;7338739;32;20126;-55
2023/06/28 06:09:29;;;;;;;4.85;2.08;;;15.90;99.90;;;;;;7347836;32;20707;-55
2023/06/28 06:13:31;;;;;;;7.97;2.47;;;16.00;99.90;;;;;;7353910;32;20501;-55
2023/06/28 06:17:33;;;;;;;6.00;1.45;;;16.20;99.90;;;;;;7356040;32;20119;-55
2023/06/28 06:21:35;;;;;;;5.62;1.50;;;16.30;99.90;;;;;;7347507;32;20104;-55
2023/06/28 06:25:36;;;;;;;4.30;1.90;;;16.40;99.90;;;;;;7355033;32;20170;-55
2023/06/28 06:29:38;;;;;;;7.85;2.00;;;16.40;99.90;;;;;;7351205;32;20107;-55
2023/06/28 06:33:40;;;;;;;6.05;1.65;;;16.40;99.90;;;;;;7352263;32;20242;-56
2023/06/28 06:37:44;;;;;;;4.72;1.90;;;16.40;99.90;;;;;;7352785;32;20107;-56
2023/06/28 06:41:46;;;;;;;6.22;2.20;;;16.40;99.90;;;;;;7350779;32;20733;-55
2023/06/28 06:45:48;;;;;;;3.40;1.70;;;16.30;99.90;;;;;;7351192;32;20114;-55
2023/06/28 06:49:49;;;;;;;6.82;2.28;;;16.40;99.90;;;;;;7349447;32;20588;-55
2023/06/28 06:53:51;;;;;;;4.87;1.98;;;16.60;99.90;;;;;;7351723;32;20396;-55
2023/06/28 06:57:53;;;;;;;5.15;2.10;;;16.60;99.90;;;;;;7346178;32;20167;-56
2023/06/28 07:01:55;;;;;;;7.20;1.92;;;16.80;99.90;;;;;;7345616;32;20216;-57
2023/06/28 07:05:57;;;;;;;5.70;2.03;;;16.90;99.90;;;;;;7353787;32;20111;-56
2023/06/28 07:09:58;;;;;;;5.95;2.00;;;17.10;99.90;;;;;;7350528;32;20494;-57
2023/06/28 07:14:00;;;;;;;6.28;2.30;;;17.10;99.90;;;;;;7354409;32;20673;-56
2023/06/28 07:18:03;;;;;;;5.40;2.40;;;17.20;99.90;;;;;;7348836;32;20123;-56
2023/06/28 07:22:05;;;;;;;4.40;1.83;;;17.10;99.90;;;;;;7344067;32;20740;-56
2023/06/28 07:26:07;;;;;;;4.28;1.92;;;17.10;99.90;;;;;;7349200;32;20137;-55
2023/06/28 07:30:09;;;;;;;7.60;1.90;;;17.30;99.90;;;;;;7338004;32;20127;-56
2023/06/28 07:34:11;;;;;;;4.47;1.60;;;17.40;99.90;;;;;;7353720;32;20572;-55
2023/06/28 07:38:13;;;;;;;4.03;1.45;;;17.40;99.90;;;;;;7353876;32;20116;-55
2023/06/28 07:42:14;;;;;;;6.40;1.80;;;17.50;99.90;;;;;;7353403;32;20111;-55
2023/06/28 07:46:16;;;;;;;6.78;1.60;;;17.60;99.90;;;;;;7355301;32;20241;-55
2023/06/28 07:50:20;;;;;;;6.32;1.70;;;17.60;99.90;;;;;;7348283;32;20119;-56
2023/06/28 07:54:23;;;;;;;3.40;1.15;;;17.50;99.90;;;;;;7349742;32;20164;-56
2023/06/28 07:58:37;;;;;;;7.70;1.55;;;17.50;99.90;;;;;;7346646;32;20123;-55
2023/06/28 08:02:39;;;;;;;4.60;1.25;;;17.50;99.90;;;;;;7347559;32;20188;-55
2023/06/28 08:06:42;;;;;;;3.97;1.17;;;17.40;99.90;;;;;;7341623;32;20572;-56
2023/06/28 08:10:43;;;;;;;7.68;1.50;;;17.50;99.90;;;;;;7347902;32;20514;-56
2023/06/28 08:14:45;;;;;;;6.03;1.27;;;17.30;99.90;;;;;;7345512;32;20107;-56
2023/06/28 08:18:47;;;;;;;3.50;1.30;;;17.50;99.90;;;;;;7343671;32;20149;-56
2023/06/28 08:22:49;;;;;;;3.62;1.40;;;17.70;99.90;;;;;;7338382;32;20134;-56
2023/06/28 08:26:50;;;;;;;6.85;1.60;;;17.70;99.90;;;;;;7349768;32;20246;-57
2023/06/28 08:30:52;;;;;;;3.85;1.35;;;17.70;99.90;;;;;;7342150;32;20515;-56
2023/06/28 08:34:54;;;;;;;5.32;1.50;;;17.80;99.90;;;;;;7350924;32;20107;-56
2023/06/28 08:38:56;;;;;;;5.43;1.52;;;17.80;99.90;;;;;;7343812;32;20114;-57
2023/06/28 08:43:01;;;;;;;6.30;1.70;;;17.90;99.90;;;;;;7352661;32;20137;-57
2023/06/28 08:47:03;;;;;;;4.03;1.42;;;17.90;99.90;;;;;;7351905;32;20115;-56
2023/06/28 08:51:06;;;;;;;7.37;1.85;;;17.90;99.90;;;;;;7343104;32;20227;-56
2023/06/28 08:55:09;;;;;;;5.43;1.70;;;17.90;99.90;;;;;;7348244;32;20170;-57
2023/06/28 08:59:12;;;;;;;5.53;1.80;;;17.80;99.90;;;;;;7348927;32;20107;-56
2023/06/28 09:03:15;;;;;;;7.20;1.65;;;17.90;99.90;;;;;;7345060;32;20510;-56
2023/06/28 09:07:20;;;;;;;8.40;1.90;;;17.80;99.90;;;;;;7350748;32;20453;-56
2023/06/28 09:11:22;;;;;;;5.87;1.85;;;17.80;99.90;;;;;;7345254;32;20203;-55
2023/06/28 09:15:24;;;;;;;6.30;2.28;;;17.80;99.90;;;;;;7347862;32;20175;-55
2023/06/28 09:19:25;;;;;;;6.30;2.80;;;17.80;99.90;;;;;;7348096;32;20175;-56
2023/06/28 09:23:29;;;;;;;5.82;2.03;;;17.90;99.90;;;;;;7347251;32;20157;-57
2023/06/28 09:27:31;;;;;;;2.75;1.40;;;17.90;99.90;;;;;;7355702;32;20270;-56
2023/06/28 09:31:37;;;;;;;4.20;1.80;;;17.90;99.90;;;;;;7358300;32;20111;-56
2023/06/28 09:35:39;;;;;;;4.12;1.77;;;17.90;99.90;;;;;;7356196;32;20187;-57
2023/06/28 09:39:41;;;;;;;7.28;1.77;;;18.10;99.90;;;;;;7351709;32;20129;-57
2023/06/28 09:43:44;;;;;;;7.78;1.90;;;18.20;99.90;;;;;;7355871;32;20107;-56
2023/06/28 09:47:53;;;;;;;7.12;2.00;;;18.30;99.90;;;;;;7345756;32;20551;-54
2023/06/28 09:51:58;;;;;;;11.27;1.92;;;18.50;99.90;;;;;;7352025;32;20128;-56
2023/06/28 09:56:01;;;;;;;3.65;1.50;;;18.70;99.90;;;;;;7351398;32;20115;-56
2023/06/28 10:00:05;;;;;;;10.55;2.25;;;18.80;99.90;;;;;;7353847;32;20566;-58
2023/06/28 10:04:11;;;;;;;8.13;1.80;;;18.90;99.90;;;;;;7346736;32;20127;-58
2023/06/28 10:08:15;;;;;;;7.57;2.10;;;18.90;99.90;;;;;;7351897;32;20120;-56
2023/06/28 10:12:21;;;;;;;9.25;2.22;;;18.90;99.90;;;;;;7348661;32;20943;-57
2023/06/28 10:16:28;;;;;;;8.20;2.15;;;18.70;99.90;;;;;;7356986;32;20108;-57
2023/06/28 10:20:29;;;;;;;6.22;1.83;;;18.60;99.90;;;;;;7348648;32;20251;-57
2023/06/28 10:24:35;;;;;;;5.90;2.00;;;18.60;99.90;;;;;;7357474;32;20315;-57
2023/06/28 10:28:40;;;;;;;7.37;2.03;;;18.60;99.90;;;;;;7348675;32;20679;-58
2023/06/28 10:32:43;;;;;;;8.90;2.10;;;18.60;99.90;;;;;;7354660;32;20193;-57
2023/06/28 10:36:45;;;;;;;7.72;1.90;;;18.60;99.90;;;;;;7349706;32;20355;-57
2023/06/28 10:40:47;;;;;;;10.98;2.00;;;18.70;99.90;;;;;;7353778;32;20115;-58
2023/06/28 10:44:53;;;;;;;7.43;2.40;;;18.80;99.90;;;;;;7356721;32;20115;-58
2023/06/28 10:48:57;;;;;;;5.53;1.80;;;18.80;99.90;;;;;;7350339;32;20149;-57
2023/06/28 10:53:00;;;;;;;6.50;2.08;;;18.80;99.90;;;;;;7347605;32;20119;-59
2023/06/28 10:57:09;;;;;;;4.85;2.05;;;18.80;99.90;;;;;;7353455;32;20198;-57
2023/06/28 11:01:13;;;;;;;6.93;2.28;;;18.90;99.90;;;;;;7353381;32;20319;-58
2023/06/28 11:05:52;;;;;;;6.12;2.25;;;19.00;99.90;;;;;;7352384;32;20107;-57
2023/06/28 11:10:16;;;;;;;8.57;2.08;;;19.10;99.90;;;;;;7349583;32;20107;-56
2023/06/28 11:14:25;;;;;;;8.20;2.70;;;19.20;99.90;;;;;;7346329;32;20142;-57
2023/06/28 11:18:27;;;;;;;5.55;2.05;;;19.30;99.90;;;;;;7340440;32;20132;-57
2023/06/28 11:22:50;;;;;;;6.12;2.22;;;19.50;99.90;;;;;;7348119;32;20168;-57
2023/06/28 11:26:52;;;;;;;9.25;2.45;;;19.90;99.90;;;;;;7349801;32;20240;-57
2023/06/28 11:30:55;;;;;;;11.68;2.72;;;20.00;99.90;;;;;;7342736;32;20115;-57
2023/06/28 11:34:58;;;;;;;9.90;2.10;;;20.10;99.90;;;;;;7343023;32;20170;-58
2023/06/28 11:39:01;;;;;;;6.55;1.83;;;20.30;99.90;;;;;;7354388;32;20174;-58
2023/06/28 11:43:03;;;;;;;12.00;2.40;;;20.40;99.90;;;;;;7355553;32;20454;-57
2023/06/28 11:47:06;;;;;;;7.22;2.20;;;20.50;99.90;;;;;;7353559;32;20130;-58
2023/06/28 11:51:09;;;;;;;5.57;1.87;;;20.50;99.90;;;;;;7355558;32;20603;-57
2023/06/28 11:55:16;;;;;;;8.98;2.35;;;20.60;99.90;;;;;;7349602;32;20183;-57
2023/06/28 11:59:20;;;;;;;8.60;2.83;;;20.50;99.90;;;;;;7348849;32;20115;-57
2023/06/28 12:03:36;;;;;;;6.87;2.40;;;20.50;99.90;;;;;;7344182;32;20213;-57
2023/06/28 12:07:38;;;;;;;11.35;2.85;;;20.50;99.90;;;;;;7345510;32;20151;-57
2023/06/28 12:11:50;;;;;;;6.43;2.33;;;20.50;99.90;;;;;;7349088;32;20186;-56
2023/06/28 12:15:52;;;;;;;9.05;3.00;;;20.60;99.90;;;;;;7352014;32;20127;-57
2023/06/28 12:19:54;;;;;;;8.02;2.50;;;20.50;99.90;;;;;;7349721;32;20114;-56
2023/06/28 12:24:26;;;;;;;8.88;2.62;;;20.60;99.90;;;;;;7350618;32;20111;-56
2023/06/28 12:28:28;;;;;;;7.97;2.40;;;20.60;99.90;;;;;;7348538;32;20166;-57
2023/06/28 12:32:30;;;;;;;13.55;3.33;;;20.50;99.90;;;;;;7349231;32;20505;-56
2023/06/28 12:36:33;;;;;;;7.20;2.75;;;20.50;99.90;;;;;;7348411;32;20190;-56
2023/06/28 12:40:36;;;;;;;5.82;2.40;;;20.40;99.90;;;;;;7344031;32;20805;-56
2023/06/28 12:44:52;;;;;;;6.87;2.30;;;20.50;99.90;;;;;;7351606;32;20112;-56
2023/06/28 12:48:55;;;;;;;7.73;3.00;;;20.60;99.90;;;;;;7348655;32;20127;-63
2023/06/28 12:52:57;;;;;;;8.60;2.67;;;20.80;99.90;;;;;;7346261;32;20248;-62
2023/06/28 12:57:00;;;;;;;8.32;2.87;;;20.90;99.90;;;;;;7344819;32;20500;-57
2023/06/28 13:01:02;;;;;;;6.40;2.03;;;21.10;99.90;;;;;;7349656;32;20167;-58
2023/06/28 13:05:04;;;;;;;7.95;2.95;;;21.20;99.90;;;;;;7348833;32;20133;-57
2023/06/28 13:09:06;;;;;;;9.05;3.08;;;21.40;99.90;;;;;;7346844;32;20293;-58
2023/06/28 13:13:08;;;;;;;10.25;3.17;;;21.30;99.90;;;;;;7346406;32;20163;-58
2023/06/28 13:17:10;;;;;;;10.77;2.37;;;21.60;99.90;;;;;;7354496;32;20133;-57
2023/06/28 13:21:12;;;;;;;10.40;3.37;;;21.80;99.90;;;;;;7353135;32;20116;-57
2023/06/28 13:25:13;;;;;;;8.68;2.80;;;21.80;99.90;;;;;;7349500;32;20133;-54
2023/06/28 13:29:17;;;;;;;6.65;2.65;;;21.80;99.90;;;;;;7346645;32;20851;-54
2023/06/28 13:33:19;;;;;;;11.25;2.70;;;21.60;99.90;;;;;;7344875;32;20187;-54
2023/06/28 13:37:21;;;;;;;9.52;2.83;;;21.80;99.90;;;;;;7350053;32;20154;-54
2023/06/28 13:41:29;;;;;;;7.78;2.80;;;21.90;99.90;;;;;;7353990;32;20111;-54
2023/06/28 13:45:34;;;;;;;9.48;2.58;;;21.80;99.90;;;;;;7353842;32;20137;-54
2023/06/28 13:49:36;;;;;;;9.40;2.72;;;21.80;99.90;;;;;;7339537;32;20133;-56
2023/06/28 13:53:37;;;;;;;8.85;3.03;;;21.80;99.90;;;;;;7355310;32;20123;-57
2023/06/28 13:57:39;;;;;;;8.35;2.72;;;21.80;99.90;;;;;;7351021;32;20116;-57
2023/06/28 14:01:41;;;;;;;12.23;2.75;;;21.80;99.90;;;;;;7349171;32;20249;-56
2023/06/28 14:05:43;;;;;;;7.60;3.00;;;21.80;99.90;;;;;;7349788;32;20338;-61
2023/06/28 14:09:45;;;;;;;9.70;2.45;;;21.60;99.90;;;;;;7356343;32;20194;-56
2023/06/28 14:13:47;;;;;;;9.23;2.50;;;21.60;99.90;;;;;;7359025;32;20180;-56
2023/06/28 14:17:49;;;;;;;7.40;2.80;;;21.60;99.90;;;;;;7357743;32;20107;-57
2023/06/28 14:21:50;;;;;;;6.95;2.70;;;21.60;99.90;;;;;;7355475;32;20261;-57
2023/06/28 14:25:52;;;;;;;9.35;2.62;;;21.60;99.90;;;;;;7356138;32;20194;-57
2023/06/28 14:29:54;;;;;;;7.90;2.30;;;21.70;99.90;;;;;;7357627;32;20455;-56
2023/06/28 14:33:55;;;;;;;6.35;2.55;;;21.70;99.90;;;;;;7355473;32;20112;-56
2023/06/28 14:38:02;;;;;;;7.85;3.15;;;21.80;99.90;;;;;;7351882;32;20225;-57
2023/06/28 14:42:04;;;;;;;8.35;2.75;;;21.70;99.90;;;;;;7356773;32;20215;-57
2023/06/28 14:46:09;;;;;;;8.65;2.75;;;21.70;99.90;;;;;;7353247;32;20454;-56
2023/06/28 14:50:14;;;;;;;5.45;2.40;;;21.60;99.90;;;;;;7348677;32;20145;-56
2023/06/28 14:54:15;;;;;;;7.75;3.03;;;21.60;99.90;;;;;;7352845;32;22102;-55
2023/06/28 14:58:17;;;;;;;8.88;2.70;;;21.50;99.90;;;;;;7351137;32;20111;-56
2023/06/28 15:02:19;;;;;;;8.75;2.70;;;21.50;99.90;;;;;;7349133;32;20146;-57
2023/06/28 15:06:21;;;;;;;10.00;2.50;;;21.30;99.90;;;;;;7355269;32;20188;-56
2023/06/28 15:10:24;;;;;;;10.55;2.92;;;21.30;99.90;;;;;;7345016;32;20215;-56
2023/06/28 15:14:26;;;;;;;8.55;2.75;;;21.30;99.90;;;;;;7351933;32;20766;-56
2023/06/28 15:18:27;;;;;;;6.43;2.45;;;21.30;99.90;;;;;;7349758;32;20487;-56
2023/06/28 15:22:31;;;;;;;9.52;3.15;;;21.20;99.90;;;;;;7352069;32;20357;-57
2023/06/28 15:26:33;;;;;;;6.12;2.97;;;21.10;99.90;;;;;;7355176;32;20229;-56
2023/06/28 15:30:35;;;;;;;8.30;3.00;;;21.10;99.90;;;;;;7349747;32;20181;-56
2023/06/28 15:34:37;;;;;;;9.52;3.20;;;21.20;99.90;;;;;;7356547;32;20545;-57
2023/06/28 15:38:38;;;;;;;12.73;2.65;;;21.10;99.90;;;;;;7348389;32;20099;-57
2023/06/28 15:42:40;;;;;;;5.30;2.55;;;21.10;99.90;;;;;;7346693;32;20140;-57
2023/06/28 15:46:42;;;;;;;8.30;2.70;;;21.20;99.90;;;;;;7355063;32;20110;-58
2023/06/28 15:50:47;;;;;;;9.85;3.00;;;21.20;99.90;;;;;;7351718;32;20123;-57
2023/06/28 15:54:49;;;;;;;11.15;3.25;;;21.30;99.90;;;;;;7352322;32;20123;-57
2023/06/28 15:58:54;;;;;;;8.70;2.47;;;21.20;99.90;;;;;;7346045;32;20238;-57
2023/06/28 16:02:55;;;;;;;7.62;3.05;;;21.30;99.90;;;;;;7349063;32;20465;-57
2023/06/28 16:06:57;;;;;;;6.18;2.45;;;21.50;99.90;;;;;;7350575;32;20111;-56
2023/06/28 16:11:00;;;;;;;8.57;3.50;;;21.50;99.90;;;;;;7353199;32;20129;-57
2023/06/28 16:15:03;;;;;;;6.22;3.03;;;21.20;99.90;;;;;;7350764;32;20214;-56
2023/06/28 16:19:04;;;;;;;11.65;2.95;;;21.20;99.90;;;;;;7349639;32;20161;-57
2023/06/28 16:23:06;;;;;;;7.47;2.78;;;21.30;99.90;;;;;;7348128;32;21208;-57
2023/06/28 16:27:10;;;;;;;8.52;3.10;;;21.10;99.90;;;;;;7350949;32;20103;-57
2023/06/28 16:31:12;;;;;;;7.25;2.65;;;21.40;99.90;;;;;;7345021;32;20544;-57
2023/06/28 16:35:14;;;;;;;8.63;3.47;;;21.60;99.90;;;;;;7348793;32;20111;-57
2023/06/28 16:39:16;;;;;;;10.23;3.50;;;21.80;99.90;;;;;;7348631;32;20418;-57
2023/06/28 16:43:18;;;;;;;9.02;2.50;;;21.40;99.90;;;;;;7345110;32;20156;-57
2023/06/28 16:47:19;;;;;;;12.30;3.17;;;21.20;99.90;;;;;;7347380;32;20134;-57
2023/06/28 16:51:21;;;;;;;9.88;2.87;;;21.10;99.90;;;;;;7353075;32;20199;-57
2023/06/28 16:55:23;;;;;;;11.02;3.28;;;21.10;99.90;;;;;;7332782;32;20538;-57
2023/06/28 16:59:25;;;;;;;7.37;3.53;;;21.00;99.90;;;;;;7345566;32;20152;-57
2023/06/28 17:03:29;;;;;;;11.00;3.20;;;21.20;99.90;;;;;;7353527;32;20524;-57
2023/06/28 17:07:31;;;;;;;10.23;3.40;;;21.00;99.90;;;;;;7351655;32;20115;-57
2023/06/28 17:11:33;;;;;;;10.55;3.00;;;20.80;99.90;;;;;;7349379;32;20556;-57
2023/06/28 17:15:35;;;;;;;8.60;3.12;;;21.00;99.90;;;;;;7351675;32;20211;-57
2023/06/28 17:19:36;;;;;;;8.38;2.85;;;21.10;99.90;;;;;;7339206;32;20107;-54
2023/06/28 17:23:38;;;;;;;9.68;3.58;;;21.10;99.90;;;;;;7350569;32;20291;-56
2023/06/28 17:27:40;;;;;;;9.38;3.20;;;21.10;99.90;;;;;;7348976;32;20709;-57
2023/06/28 17:31:44;;;;;;;8.77;2.72;;;21.20;99.90;;;;;;7347757;32;20115;-56
2023/06/28 17:35:46;;;;;;;10.70;3.42;;;21.20;99.90;;;;;;7340014;32;20128;-57
2023/06/28 17:39:47;;;;;;;7.07;2.85;;;21.00;99.90;;;;;;7348476;32;20218;-56
2023/06/28 17:43:49;;;;;;;7.43;2.72;;;21.10;99.90;;;;;;7336565;32;20428;-57
2023/06/28 17:47:51;;;;;;;7.72;2.83;;;21.20;99.90;;;;;;7347985;32;20162;-57
2023/06/28 17:51:53;;;;;;;7.75;3.33;;;21.00;99.90;;;;;;7343942;32;20233;-56
2023/06/28 17:55:55;;;;;;;8.20;2.75;;;21.00;99.90;;;;;;7354322;32;20119;-57
2023/06/28 17:59:59;;;;;;;10.25;3.03;;;20.90;99.90;;;;;;7345744;32;20939;-57
2023/06/28 18:04:02;;;;;;;8.15;2.70;;;20.80;99.90;;;;;;7345548;32;20128;-57
2023/06/28 18:08:04;;;;;;;9.07;3.03;;;20.80;99.90;;;;;;7349513;32;20253;-57
2023/06/28 18:12:06;;;;;;;7.72;3.15;;;20.90;99.90;;;;;;7352726;32;20387;-57
2023/06/28 18:16:08;;;;;;;7.90;2.87;;;20.80;99.90;;;;;;7348830;32;20149;-57
2023/06/28 18:20:10;;;;;;;10.73;2.78;;;20.70;99.90;;;;;;7355430;32;20129;-57
2023/06/28 18:24:12;;;;;;;6.30;2.65;;;20.60;99.90;;;;;;7357288;32;20103;-57
2023/06/28 18:28:14;;;;;;;6.93;2.78;;;20.60;99.90;;;;;;7350902;32;20111;-56
2023/06/28 18:32:15;;;;;;;6.62;2.67;;;20.50;99.90;;;;;;7355494;32;20115;-57
2023/06/28 18:36:17;;;;;;;7.95;2.80;;;20.50;99.90;;;;;;7358154;32;20139;-57
2023/06/28 18:40:22;;;;;;;4.97;2.55;;;20.40;99.90;;;;;;7348003;32;20111;-57
2023/06/28 18:44:24;;;;;;;9.25;3.55;;;20.40;99.90;;;;;;7345490;32;20253;-57
2023/06/28 18:48:25;;;;;;;9.25;2.95;;;20.30;99.90;;;;;;7346262;32;20112;-56
2023/06/28 18:52:27;;;;;;;6.80;2.87;;;20.40;99.90;;;;;;7350277;32;20142;-57
2023/06/28 18:56:30;;;;;;;7.28;3.00;;;20.30;99.90;;;;;;7353688;32;20137;-56
2023/06/28 19:00:47;;;;;;;8.93;2.83;;;20.30;99.90;;;;;;7355668;32;20528;-57
2023/06/28 19:04:49;;;;;;;;;;;20.30;99.90;;;;;;7350776;32;20133;-57
2023/06/28 19:08:53;;;;;;;6.68;2.97;;;20.30;99.90;;;;;;7348254;32;20470;-57
2023/06/28 19:12:55;;;;;;;12.35;2.92;;;20.20;99.90;;;;;;7361785;32;20802;-57
2023/06/28 19:16:57;;;;;;;5.90;2.50;;;20.20;99.90;;;;;;7351531;32;20399;-60
2023/06/28 19:20:58;;;;;;;10.00;3.00;;;20.10;99.90;;;;;;7342518;32;20137;-56
2023/06/28 19:25:01;;;;;;;8.98;2.55;;;20.10;99.90;;;;;;7349071;32;20529;-57
2023/06/28 19:29:03;;;;;;;8.50;3.47;;;20.10;99.90;;;;;;7348064;32;20123;-56
2023/06/28 19:33:06;;;;;;;5.25;2.75;;;20.10;99.90;;;;;;7348562;32;20120;-57
2023/06/28 19:37:08;;;;;;;6.95;3.08;;;19.90;99.90;;;;;;7355667;32;20269;-57
2023/06/28 19:41:09;;;;;;;6.43;2.87;;;20.00;99.90;;;;;;7345885;32;20127;-56
2023/06/28 19:45:11;;;;;;;7.43;3.30;;;19.90;99.90;;;;;;7346400;32;20135;-57
2023/06/28 19:49:13;;;;;;;6.22;3.30;;;19.80;99.90;;;;;;7350486;32;20821;-57
2023/06/28 19:53:15;;;;;;;8.23;2.95;;;19.80;99.90;;;;;;7339556;32;20211;-56
2023/06/28 19:57:17;;;;;;;6.90;3.30;;;19.60;99.90;;;;;;7351726;32;20158;-57
2023/06/28 20:01:18;;;;;;;6.28;2.90;;;19.60;99.90;;;;;;7344000;32;20319;-57
2023/06/28 20:05:20;;;;;;;5.97;3.12;;;19.50;99.90;;;;;;7345252;32;20461;-54
2023/06/28 20:09:22;;;;;;;6.78;3.47;;;19.50;99.90;;;;;;7350880;32;20107;-55
2023/06/28 20:13:24;;;;;;;6.35;3.53;;;19.40;99.90;;;;;;7350597;32;20246;-55
2023/06/28 20:17:25;;;;;;;6.32;3.28;;;19.40;99.90;;;;;;7347091;32;20254;-55
2023/06/28 20:21:30;;;;;;;7.32;3.50;;;19.30;99.90;;;;;;7343663;32;20245;-55
2023/06/28 20:25:32;;;;;;;7.72;3.40;;;19.30;99.90;;;;;;7347449;32;20141;-55
2023/06/28 20:29:35;;;;;;;6.20;3.60;;;19.30;99.90;;;;;;7334068;32;20216;-55
2023/06/28 20:33:38;;;;;;;9.43;3.95;;;19.20;99.90;;;;;;7339737;32;20183;-55
2023/06/28 20:37:39;;;;;;;5.57;3.37;;;19.20;99.90;;;;;;7342187;32;20134;-55
2023/06/28 20:41:45;;;;;;;7.55;3.53;;;19.10;99.90;;;;;;7347863;32;20190;-55
2023/06/28 20:45:47;;;;;;;5.30;3.42;;;19.10;99.90;;;;;;7350680;32;20225;-55
2023/06/28 20:49:49;;;;;;;8.52;3.58;;;19.00;99.90;;;;;;7337974;32;20641;-55
2023/06/28 20:53:51;;;;;;;6.97;3.90;;;19.00;99.90;;;;;;7347727;32;20714;-56
2023/06/28 20:57:55;;;;;;;7.47;3.25;;;19.00;99.90;;;;;;7344186;32;20485;-55
2023/06/28 21:01:57;;;;;;;6.20;3.53;;;18.90;99.90;;;;;;7343013;32;20808;-55